Pagrindinis puslapis
METAR-TAF:

METAR-TAF

Oro uostai :

Igvasu, Argentina

platuma: 25-44S, ilguma: 054-28W, Aukštis: 270 m

Dabartinis oras

Ataskaita buvo paskelbta 53 minutes, ne 08:00 UTC
Ramus vėjas
Temperatūra 19°C
Drėgmė 100%
Slėgis 1009 hPa
Matomumas: 0200 m
rūkas

METAR: SARI 240800Z 00000KT 0200 FG NSC 19/19 Q1009

Laikas: 05:53 (08:53 UTC)

Prognozė

Ataskaita buvo paskelbta 3 valandos ir 53 minutes, ne 05:00 UTC
Prognozė galioja nuo 24 metu 06 UTC su 25 metu 06 UTC
Vėjas 3 kt nuo kintamojo kryptimis
Matomumas: 0200 m
Mažai debesys ne aukštis 200 ft
rūkas
Tapsmas
nuo 24 metu 10 UTC su 24 metu 12 UTC
Matomumas 10 km arba daugiau
Išsisklaidę debesys ne aukštis 2000 ft

TAF: SARI 240500Z 2406/2506 VRB03KT 0200 FG FEW002 TX30/2419Z TN17/2409Z BECMG 2410/2412 9999 SCT020

Orai ataskaitas ir orų prognozės (METAR, TAF).

turimą stotys yra geltonos ir raudonos taškus žemėlapyje.

Perkelti pele per norėdami pamatyti stoties vardą.

Tada spustelėkite, norėdami matyti oro stebėjimo ir prognozės.

Norėdami pakeisti žemėlapį: spustelėkite ant žalios mygtukų su juodo kryžiaus žemyn,; žalią mygtuką su brūkšneliu, jei norite nutolinti; arba žalių rodyklių gretimoms žemėlapius.


METAR-TAF: